Weerspreuk van de dag: Danst het lammetje in maart, april pakt het bij de staart.
Het weer levert geen direct gevaar op.    Er zijn geen waarschuwingen afgegeven.

Onweer radar Meer informatie blitzortung!


Regen radar Meer informatie rain snow radar


Bekijk deze sites ook eens:

FPL Automotive (TIP)

Autostekkers.nl (TIP)

Over Luyksgestel

De Kempen, mijn omgeving

BOL.com

Weerstation Noordbergum

Inktweb

Weerstation Hapert

Weerstation Hoogeloon

Weerstation Son&Breugel

Weerstation Castaert

Nieuw horloge

Weerstation Tilburg Reeshof

Weerstation Scheulder

Weerverwachting Samos

Samos actueel

Weerwoord (forum)

Griekenlandforum

Vakantie naar Samos

Winterzon

Canon

Wolven in Nederland



METAR rapporten vliegvelden

   
EBAW - Antwerp
Gewijzigd: 31-03-2020 07:50
Helder  
Helder  
   Wind: NO 9.3 km/h
Wind: NO 9.3 km/h
Temperatuur: 2°C
Voelt als: -1°C
Dauwpunt: 0°C
Vochtigheid: 87%
Barometer: 1030 hPa
Zicht: meer dan 10 km
Bewolking: Helder
EBAW 310550Z 04005KT CAVOK 02/00 Q1030 NOSIG
EBLG - Liège
Gewijzigd: 31-03-2020 07:50
Licht bewolkt  
Licht bewolkt  
   Wind: NO 13 km/h<br />Gust to 13 km/h
Wind: NO 13 km/h
Gust to 13 km/h
Temperatuur: 1°C
Voelt als: -3°C
Dauwpunt: 0°C
Vochtigheid: 93%
Barometer: 1028 hPa
Bewolking: Licht bewolkt
Zicht: 9 km
Bewolking: Licht bewolkt 800 ft
EBLG 310550Z 05007G18KT 020V110 9000 FEW008 01/00 Q1028 NOSIG
EBCV - Mons/Bergen
Gewijzigd: 31-03-2020 07:55
Grotendeels bewolkt  
Grotendeels bewolkt  
   Wind: NNO 11.1 km/h
Wind: NNO 11.1 km/h
Temperatuur: 2°C
Voelt als: -1°C
Dauwpunt: 2°C
Vochtigheid: 100%
Barometer: 1029 hPa
Bewolking: Grotendeels bewolkt
Zicht: 8 km
Bewolking: Grotendeels bewolkt 800 ft
EBCV 310555Z AUTO 03006KT 8000 BKN008/// 02/02 Q1029 GRN
EHBK - Maastricht
Gewijzigd: 31-03-2020 07:55
Nevel, Bewolking  
Nevel, Bewolking  
   Wind: NO 16.7 km/h
Wind: NO 16.7 km/h
Temperatuur: 1°C
Voelt als: -3°C
Dauwpunt: 1°C
Vochtigheid: 100%
Barometer: 1028 hPa
Bewolking: Bewolking
Zicht: 3 km
Bewolking: Bewolking 300 ft
EHBK 310555Z AUTO 04009KT 010V080 3200 BR OVC003 01/01 Q1028 BECMG 7000 NSW SCT012
ELLX - Luxemburg
Gewijzigd: 31-03-2020 07:50
Gedeeltelijk bewolkt  
Gedeeltelijk bewolkt  
   Wind: NO 14.8 km/h
Wind: NO 14.8 km/h
Temperatuur: 2°C
Voelt als: -2°C
Dauwpunt: 0°C
Vochtigheid: 87%
Barometer: 1026 hPa
Bewolking: Gedeeltelijk bewolkt
Zicht: meer dan 10 km
Bewolking: Gedeeltelijk bewolkt 3000 ft
ELLX 310550Z 05008KT 9999 SCT030 02/M00 Q1026 NOSIG
EBOS - Oostende
Gewijzigd: 31-03-2020 07:50
Licht bewolkt  
Licht bewolkt  
   Wind: ONO 14.8 km/h
Wind: ONO 14.8 km/h
Temperatuur: 4°C
Voelt als: 1°C
Dauwpunt: 2°C
Vochtigheid: 87%
Barometer: 1030 hPa
Bewolking: Licht bewolkt
Zicht: meer dan 10 km
Bewolking: Licht bewolkt 2500 ft
EBOS 310550Z 06008KT 9999 FEW025 04/02 Q1030 NOSIG

Script ontwikkeld door  Saratoga-weather.org Aangepast voor de template door  Weerstation Leuven

U vindt ons ook hier:

Het Weer Aktueel

UK Metoffice

European Weather Network

Weather Underground

AWEKAS